Startpagina
METAR-TAF:

METAR-TAF

Vliegvelden :

Aeroporto Internacional de Foz do Iguaçu

Foz do Iguaçu, Paraná, Brazilië

breedte: 25-31S, lengte: 054-35W, hoogte: 180 m

Actueel weer

Dit bericht is 1 uur en het 0 minuten geleden gemaakt, om 11:00 UTC
Wind 2 kt uit het noordoosten
Temperatuur 22°C
Vochtigheid 65%
Druk 1016 hPa
Zicht 10 km of meer
geen wolken onder 1500 m en geen cumulonimbus

METAR: SBFI 231100Z 05002KT CAVOK 22/15 Q1016

Tijdstip: 09:00 (12:00 UTC)

Verwachting

Dit bericht is 2 uur en het 30 minuten geleden gemaakt, om 09:30 UTC
Verwachting geldig van 23 om 12 UTC tot 24 om 12 UTC
Wind 8 kt uit het noordnoordoosten
Zicht 10 km of meer
geen wolken onder 1500 m en geen cumulonimbus
Wijzigt naar
van 24 om 00 UTC tot 24 om 02 UTC
Wind 12 kt uit het noordnoordoosten
Kans 30% :
Tijdelijke
van 24 om 06 UTC tot 24 om 12 UTC
Zicht: 2000 m
Gebroken wolken op 300 ft
mistbanken

TAF: SBFI 230930Z 2312/2412 03008KT CAVOK TX27/2318Z TN18/2406Z BECMG 2400/2402 02012KT PROB30 TEMPO 2406/2412 2000 BCFG BKN003 RMK PFF

Waarnemingen en weersverwachtingen van meer dan 4000 vliegvelden (METAR en TAF).

De beschikbare stations zijn de gele en rode punten op de kaart.

Ga met uw muis naar het station om de naam te zien.

Klik dan om waarnemingen en weersverwachtingen te zien.

kaart wijzigen: klik op de groene knoppen met een zwart kruis om in te zoomen, op de groene knop met een streepje om uit te zoomen of op de groene pijlen voor aangrenzende kaarten.


METAR-TAF: